Time;durP1;ratioP1;P1;durP2;ratioP2;P2;SDS_P1;SDS_P2;PMS_P1;PMS_P2;Temp;Humidity;BMP_temperature;BMP_pressure;BME280_temperature;BME280_humidity;BME280_pressure;Samples;Min_cycle;Max_cycle;Signal;HPM_P1;HPM_P2
2022/01/04 00:01:36;;;;;;;14.40;3.22;;;;;;;18.00;42.22;98964.19;4404074;32;20173;-70
2022/01/04 00:04:02;;;;;;;13.48;2.85;;;;;;;17.98;42.15;98973.25;4401485;32;20506;-70
2022/01/04 00:06:28;;;;;;;9.82;2.95;;;;;;;17.89;42.29;98973.63;4401536;32;20393;-70
2022/01/04 00:09:01;;;;;;;15.60;2.95;;;;;;;17.96;42.44;98977.94;4399010;32;20054;-70
2022/01/04 00:14:19;;;;;;;9.77;3.25;;;;;;;18.26;41.96;98996.56;3973538;32;15073384;-71
2022/01/04 00:16:45;;;;;;;14.13;3.72;;;;;;;17.14;42.08;98997.91;4423538;32;20393;-71
2022/01/04 00:19:11;;;;;;;8.15;3.28;;;;;;;17.31;41.00;98992.88;4421768;32;20713;-71
2022/01/04 00:21:38;;;;;;;9.82;3.53;;;;;;;17.15;40.97;99002.28;4423428;32;20478;-71
2022/01/04 00:24:04;;;;;;;7.12;3.45;;;;;;;17.18;40.82;98998.41;4423924;32;20400;-71
2022/01/04 00:26:30;;;;;;;9.93;3.90;;;;;;;17.06;40.93;99004.69;4424023;32;20139;-71
2022/01/04 00:28:57;;;;;;;5.75;3.70;;;;;;;16.64;41.24;98988.09;4423425;32;20431;-71
2022/01/04 00:31:23;;;;;;;5.55;3.28;;;;;;;16.69;41.00;98996.56;4421758;32;20497;-71
2022/01/04 00:33:49;;;;;;;3.67;2.65;;;;;;;16.33;41.02;99003.37;4421671;32;20091;-71
2022/01/04 00:36:15;;;;;;;4.60;2.90;;;;;;;16.14;41.06;99005.19;4421008;32;20080;-71
2022/01/04 00:38:41;;;;;;;3.70;3.28;;;;;;;15.98;41.66;98991.81;4424689;32;20095;-71
2022/01/04 00:41:07;;;;;;;7.28;4.40;;;;;;;15.81;41.99;99002.41;4421334;32;20353;-71
2022/01/04 00:43:33;;;;;;;4.10;3.25;;;;;;;15.54;42.19;99000.34;4425153;32;20092;-71
2022/01/04 00:46:00;;;;;;;3.22;2.92;;;;;;;15.68;41.80;99005.00;4422887;32;20051;-71
2022/01/04 00:51:02;;;;;;;4.00;2.83;;;;;;;15.56;42.58;99007.03;3979097;32;15024276;-69
2022/01/04 00:53:28;;;;;;;4.72;2.97;;;;;;;15.15;43.65;99005.13;4431508;32;20059;-70
2022/01/04 00:55:54;;;;;;;4.57;2.87;;;;;;;14.98;43.63;99001.47;4429827;32;20084;-70
2022/01/04 00:58:20;;;;;;;5.40;2.83;;;;;;;14.82;44.76;99002.97;4430210;32;20423;-70
2022/01/04 01:00:45;;;;;;;4.68;2.80;;;;;;;14.77;45.12;99000.13;4430826;32;20065;-70
2022/01/04 01:03:11;;;;;;;4.32;3.10;;;;;;;14.38;46.06;99005.59;4433278;32;20034;-70
2022/01/04 01:05:37;;;;;;;3.78;2.80;;;;;;;14.32;46.00;99006.84;4428048;32;20480;-70
2022/01/04 01:08:03;;;;;;;3.03;2.37;;;;;;;13.33;48.48;99015.28;4432336;32;20025;-70
2022/01/04 01:13:06;;;;;;;2.45;1.60;;;;;;;13.68;47.59;99013.81;3953977;32;15722472;-70
2022/01/04 01:15:32;;;;;;;2.08;1.17;;;;;;;13.68;47.59;99013.81;4430530;32;20022;-70
2022/01/04 01:17:57;;;;;;;2.58;1.55;;;;;;;13.28;47.47;99010.34;4430150;32;20543;-70
2022/01/04 01:20:23;;;;;;;2.35;1.60;;;;;;;13.13;48.16;99010.47;4428259;32;20048;-70
2022/01/04 01:22:49;;;;;;;1.62;1.10;;;;;;;13.21;47.73;99007.97;4431756;32;20077;-70
2022/01/04 01:25:15;;;;;;;1.80;1.27;;;;;;;13.06;47.68;99002.44;4433058;32;20097;-70
2022/01/04 01:27:42;;;;;;;1.50;1.30;;;;;;;13.08;47.74;99011.19;4428253;32;20563;-70
2022/01/04 01:30:11;;;;;;;1.70;1.50;;;;;;;13.13;47.40;99004.81;4427170;32;20324;-69
2022/01/04 01:32:37;;;;;;;4.18;1.60;;;;;;;12.96;47.74;99009.47;4430439;32;20086;-70
2022/01/04 01:35:04;;;;;;;2.50;1.60;;;;;;;12.44;48.41;98998.56;4431430;32;20080;-68
2022/01/04 01:37:29;;;;;;;3.30;1.98;;;;;;;13.18;47.46;99008.97;4431232;32;20076;-70
2022/01/04 01:39:55;;;;;;;2.25;1.50;;;;;;;13.15;47.71;99007.91;4430427;32;20045;-69
2022/01/04 01:42:21;;;;;;;2.62;1.70;;;;;;;12.63;48.25;99006.25;4430952;32;20065;-69
2022/01/04 01:44:46;;;;;;;2.10;1.42;;;;;;;13.06;47.72;99004.47;4434033;32;20056;-69
2022/01/04 01:47:12;;;;;;;2.03;1.40;;;;;;;12.89;47.22;99006.31;4432870;32;20045;-69
2022/01/04 01:49:41;;;;;;;2.67;1.80;;;;;;;12.95;47.43;99007.91;4429607;32;20112;-69
2022/01/04 01:52:07;;;;;;;2.20;1.40;;;;;;;12.40;48.34;99010.06;4428491;32;20061;-69
2022/01/04 01:54:33;;;;;;;1.80;1.25;;;;;;;12.77;47.63;99022.34;4432492;32;20443;-69
2022/01/04 01:56:59;;;;;;;1.83;1.25;;;;;;;12.43;47.94;99006.28;4429599;32;20422;-69
2022/01/04 01:59:24;;;;;;;2.35;1.40;;;;;;;12.59;47.80;99010.56;4427848;32;20042;-69
2022/01/04 02:01:51;;;;;;;1.92;1.30;;;;;;;12.52;47.30;99023.03;4431482;32;20034;-69
2022/01/04 02:04:17;;;;;;;1.50;1.20;;;;;;;12.51;47.30;99023.53;4432944;32;20037;-69
2022/01/04 02:06:42;;;;;;;2.47;1.40;;;;;;;11.94;48.64;99028.88;4430718;32;20365;-69
2022/01/04 02:09:08;;;;;;;1.87;1.37;;;;;;;11.82;49.24;99022.28;4430728;32;20056;-69
2022/01/04 02:11:35;;;;;;;3.42;1.23;;;;;;;12.18;48.33;99023.84;4428089;32;20075;-69
2022/01/04 02:14:02;;;;;;;2.00;1.33;;;;;;;12.26;48.41;99019.34;4429030;32;20088;-69
2022/01/04 02:16:30;;;;;;;3.10;1.20;;;;;;;12.51;47.94;99017.87;4431906;32;20103;-69
2022/01/04 02:19:03;;;;;;;4.55;1.75;;;;;;;12.38;48.64;99029.53;4430436;32;20095;-69
2022/01/04 02:21:30;;;;;;;2.72;1.90;;;;;;;12.72;47.74;99014.59;4432851;32;20040;-69
2022/01/04 02:23:55;;;;;;;3.37;2.10;;;;;;;12.75;47.86;99018.44;4420899;32;20081;-69
2022/01/04 02:26:21;;;;;;;4.65;1.80;;;;;;;12.67;47.85;99020.91;4420629;32;20077;-69
2022/01/04 02:28:49;;;;;;;3.00;1.80;;;;;;;12.86;47.89;99016.53;4418930;32;20505;-69
2022/01/04 02:31:15;;;;;;;3.40;1.70;;;;;;;12.98;47.22;99011.81;4422191;32;20070;-69
2022/01/04 02:33:41;;;;;;;3.30;2.10;;;;;;;13.01;47.29;99003.13;4418720;32;20600;-69
2022/01/04 02:36:06;;;;;;;2.78;1.77;;;;;;;12.85;47.14;99005.72;4423130;32;20049;-69
2022/01/04 02:38:33;;;;;;;3.95;2.28;;;;;;;12.75;47.62;99005.13;4416016;32;20034;-69
2022/01/04 02:41:01;;;;;;;3.15;1.75;;;;;;;12.78;47.73;99004.13;4419758;32;20117;-69
2022/01/04 02:43:26;;;;;;;3.50;2.30;;;;;;;12.59;47.89;99010.56;4419068;32;20083;-69
2022/01/04 02:45:52;;;;;;;3.30;1.80;;;;;;;12.56;48.12;99011.53;4418102;32;20053;-70
2022/01/04 02:48:18;;;;;;;5.03;2.08;;;;;;;12.61;47.71;99003.16;4421054;32;20152;-70
2022/01/04 02:50:44;;;;;;;3.87;1.77;;;;;;;12.50;47.97;99010.69;4419604;32;20049;-70
2022/01/04 02:53:10;;;;;;;4.72;1.62;;;;;;;12.62;48.18;99018.81;4419378;32;20060;-70
2022/01/04 02:55:36;;;;;;;2.42;1.70;;;;;;;12.60;47.79;99015.72;4421468;32;20065;-70
2022/01/04 02:58:01;;;;;;;2.90;1.55;;;;;;;12.55;47.92;99018.47;4415588;32;20033;-70
2022/01/04 03:00:28;;;;;;;3.45;1.85;;;;;;;12.58;47.91;99023.13;4418628;32;20030;-70
2022/01/04 03:02:55;;;;;;;3.50;1.80;;;;;;;12.80;47.57;99021.38;4418499;32;20126;-68
2022/01/04 03:05:21;;;;;;;2.80;1.55;;;;;;;12.98;47.56;99026.69;4417521;32;20352;-68
2022/01/04 03:07:47;;;;;;;2.75;1.40;;;;;;;11.93;48.31;99024.50;4418266;32;20093;-68
2022/01/04 03:10:13;;;;;;;3.17;1.40;;;;;;;12.36;47.92;99029.22;4419052;32;21324;-68
2022/01/04 03:12:42;;;;;;;3.33;1.52;;;;;;;12.54;47.70;99017.69;4417376;32;20145;-69
2022/01/04 03:15:13;;;;;;;2.05;1.10;;;;;;;12.56;47.43;99020.78;4419456;32;20441;-68
2022/01/04 03:17:38;;;;;;;4.20;1.20;;;;;;;12.49;48.37;99026.84;4417028;32;20080;-68
2022/01/04 03:20:08;;;;;;;1.92;0.90;;;;;;;12.16;48.20;99017.94;4418982;32;20110;-68
2022/01/04 03:22:34;;;;;;;1.67;1.10;;;;;;;12.35;47.63;99027.69;4420386;32;20434;-68
2022/01/04 03:25:00;;;;;;;2.05;1.30;;;;;;;12.22;47.71;99026.47;4420587;32;20095;-68
2022/01/04 03:27:25;;;;;;;2.90;1.10;;;;;;;12.18;47.55;99023.84;4415561;32;20858;-68
2022/01/04 03:29:51;;;;;;;2.17;1.35;;;;;;;12.05;47.90;99031.84;4415394;32;20137;-68
2022/01/04 03:32:17;;;;;;;2.40;1.33;;;;;;;12.09;47.95;99041.66;4418624;32;20100;-68
2022/01/04 03:34:42;;;;;;;2.78;1.75;;;;;;;12.06;48.03;99034.19;4417885;32;20713;-68
2022/01/04 03:37:08;;;;;;;2.30;1.40;;;;;;;11.75;48.42;99036.75;4420328;32;20104;-68
2022/01/04 03:39:34;;;;;;;2.67;1.55;;;;;;;12.08;48.35;99034.47;4418007;32;20182;-68
2022/01/04 03:41:59;;;;;;;3.97;1.67;;;;;;;12.18;48.02;99029.47;4418549;32;20746;-68
2022/01/04 03:44:26;;;;;;;3.33;2.03;;;;;;;12.18;47.51;99026.66;4415245;32;20191;-68
2022/01/04 03:46:54;;;;;;;2.65;1.75;;;;;;;12.26;47.32;99030.63;4419266;32;20807;-68
2022/01/04 03:49:20;;;;;;;5.43;1.95;;;;;;;12.46;47.37;99033.50;4419110;32;20061;-68
2022/01/04 03:51:46;;;;;;;3.17;2.08;;;;;;;12.13;48.07;99032.22;4422881;32;20034;-68
2022/01/04 03:54:12;;;;;;;2.83;1.75;;;;;;;11.91;47.66;99030.63;4418752;32;20096;-68
2022/01/04 03:56:37;;;;;;;2.60;1.62;;;;;;;12.01;47.83;99042.56;4417757;32;20042;-68
2022/01/04 03:59:03;;;;;;;3.67;1.80;;;;;;;12.02;47.88;99038.47;4418494;32;20079;-68
2022/01/04 04:01:29;;;;;;;2.95;1.75;;;;;;;11.73;48.33;99035.72;4403440;32;20388;-68
2022/01/04 04:03:55;;;;;;;3.28;1.70;;;;;;;12.14;47.42;99034.56;4419086;32;20105;-68
2022/01/04 04:06:21;;;;;;;3.20;1.37;;;;;;;11.79;48.03;99040.16;4422377;32;20070;-68
2022/01/04 04:08:48;;;;;;;2.22;1.40;;;;;;;11.87;48.09;99051.81;4418072;32;20500;-69
2022/01/04 04:11:15;;;;;;;5.53;1.40;;;;;;;12.06;47.25;99055.97;4420666;32;20045;-69
2022/01/04 04:13:40;;;;;;;2.55;1.40;;;;;;;12.13;47.33;99056.31;4419418;32;20535;-69
2022/01/04 04:16:07;;;;;;;2.70;1.30;;;;;;;12.21;46.90;99061.59;4418078;32;20038;-69
2022/01/04 04:18:37;;;;;;;2.92;1.50;;;;;;;12.12;47.05;99062.47;4415153;32;20070;-69
2022/01/04 04:21:02;;;;;;;1.50;0.90;;;;;;;11.96;47.47;99069.41;4419902;32;20121;-69
2022/01/04 04:23:28;;;;;;;5.10;1.12;;;;;;;12.07;46.90;99065.97;4420777;32;20065;-69
2022/01/04 04:25:54;;;;;;;2.87;1.40;;;;;;;12.09;47.04;99067.03;4419074;32;20038;-69
2022/01/04 04:28:20;;;;;;;2.92;1.48;;;;;;;12.19;47.20;99067.72;4415525;32;20115;-69
2022/01/04 04:30:45;;;;;;;2.47;1.02;;;;;;;12.21;47.10;99067.97;4416035;32;20030;-69
2022/01/04 04:33:12;;;;;;;3.28;1.10;;;;;;;12.17;46.80;99073.06;4418479;32;20392;-69
2022/01/04 04:35:37;;;;;;;5.95;1.35;;;;;;;11.54;47.34;99073.78;4420349;32;20077;-69
2022/01/04 04:38:03;;;;;;;4.82;1.23;;;;;;;11.86;46.70;99067.97;4421477;32;20452;-69
2022/01/04 04:40:29;;;;;;;1.48;0.88;;;;;;;11.81;46.37;99079.13;4420165;32;20126;-70
2022/01/04 04:42:56;;;;;;;3.20;0.85;;;;;;;11.51;47.17;99071.94;4417091;32;20042;-70
2022/01/04 04:45:21;;;;;;;3.37;0.90;;;;;;;11.76;46.71;99074.94;4402149;32;20084;-70
2022/01/04 04:47:47;;;;;;;3.47;1.08;;;;;;;11.55;46.93;99083.75;4418350;32;20261;-70
2022/01/04 04:50:14;;;;;;;4.62;0.77;;;;;;;11.13;47.77;99075.56;4418961;32;20127;-70
2022/01/04 04:52:40;;;;;;;2.90;0.62;;;;;;;10.97;46.64;99087.28;4413864;32;20050;-70
2022/01/04 04:55:07;;;;;;;7.12;0.80;;;;;;;10.73;47.39;99080.88;4421416;32;20033;-70
2022/01/04 04:57:32;;;;;;;2.75;0.50;;;;;;;10.77;47.21;99077.88;4415752;32;20025;-70
2022/01/04 04:59:58;;;;;;;5.90;0.93;;;;;;;10.72;47.24;99068.06;4419744;32;20034;-70
2022/01/04 05:02:23;;;;;;;4.72;0.80;;;;;;;11.20;46.65;99074.41;4413796;32;20099;-70
2022/01/04 05:04:49;;;;;;;6.80;0.95;;;;;;;11.09;46.81;99074.19;4417894;32;20037;-70
2022/01/04 05:07:15;;;;;;;3.15;0.50;;;;;;;11.10;46.55;99070.87;4420286;32;20060;-70
2022/01/04 05:09:41;;;;;;;4.78;0.68;;;;;;;11.43;46.00;99079.97;4417881;32;20152;-70
2022/01/04 05:12:07;;;;;;;5.95;0.75;;;;;;;11.46;45.40;99064.13;4417897;32;20141;-70
2022/01/04 05:14:33;;;;;;;2.78;0.60;;;;;;;11.62;45.65;99063.69;4420557;32;20093;-70
2022/01/04 05:16:59;;;;;;;4.37;0.60;;;;;;;11.81;45.13;99062.22;4415258;32;20026;-70
2022/01/04 05:19:25;;;;;;;7.07;0.90;;;;;;;11.86;45.05;99065.16;4420085;32;20088;-70
2022/01/04 05:21:50;;;;;;;6.60;1.10;;;;;;;11.81;45.09;99065.03;4418909;32;20045;-70
2022/01/04 05:24:17;;;;;;;4.65;1.27;;;;;;;11.89;44.89;99060.56;4415904;32;20034;-70
2022/01/04 05:26:43;;;;;;;3.97;0.30;;;;;;;11.87;44.57;99065.91;4418576;32;20030;-70
2022/01/04 05:29:08;;;;;;;2.12;0.47;;;;;;;11.86;44.84;99070.00;4418335;32;20474;-70
2022/01/04 05:31:34;;;;;;;3.53;0.50;;;;;;;11.96;44.72;99074.25;4416317;32;20079;-70
2022/01/04 05:34:00;;;;;;;5.60;0.62;;;;;;;11.83;43.72;99068.94;4415486;32;20065;-70
2022/01/04 05:36:25;;;;;;;9.18;0.65;;;;;;;11.21;44.18;99073.94;4417845;32;20117;-70
2022/01/04 05:38:52;;;;;;;3.05;0.30;;;;;;;11.78;43.88;99069.59;4416330;32;20090;-70
2022/01/04 05:41:18;;;;;;;10.00;0.93;;;;;;;12.16;43.78;99059.44;4414980;32;20031;-70
2022/01/04 05:43:46;;;;;;;4.85;0.60;;;;;;;12.12;43.30;99056.81;4420702;32;20074;-70
2022/01/04 05:46:12;;;;;;;12.55;0.70;;;;;;;12.13;43.59;99047.13;4415933;32;20030;-70
2022/01/04 05:48:37;;;;;;;2.67;0.45;;;;;;;12.16;43.07;99059.44;4421351;32;20076;-70
2022/01/04 05:51:03;;;;;;;5.50;0.60;;;;;;;12.18;43.41;99060.50;4415747;32;20411;-69
2022/01/04 05:53:30;;;;;;;4.30;0.50;;;;;;;12.21;43.53;99061.59;4417938;32;20034;-70
2022/01/04 05:55:55;;;;;;;1.87;0.47;;;;;;;11.99;42.79;99053.53;4414518;32;20037;-69
2022/01/04 05:58:21;;;;;;;7.40;0.60;;;;;;;12.09;43.33;99046.53;4417956;32;20197;-69
2022/01/04 06:00:47;;;;;;;3.58;0.60;;;;;;;12.23;43.09;99054.19;4420404;32;20052;-69
2022/01/04 06:03:12;;;;;;;3.05;0.37;;;;;;;12.26;42.95;99055.22;4422212;32;20049;-69
2022/01/04 06:05:38;;;;;;;4.50;0.60;;;;;;;12.13;42.52;99055.56;4416216;32;20052;-69
2022/01/04 06:08:04;;;;;;;2.40;0.30;;;;;;;12.19;42.17;99056.44;4419412;32;20066;-69
2022/01/04 06:10:36;;;;;;;4.25;0.55;;;;;;;11.92;42.27;99053.94;4420952;32;20087;-69
2022/01/04 06:15:40;;;;;;;4.37;0.77;;;;;;;12.23;42.49;99059.81;3980666;32;15022426;-69
2022/01/04 06:18:06;;;;;;;6.90;0.73;;;;;;;12.23;42.49;99059.81;4437385;32;20542;-69
2022/01/04 06:20:32;;;;;;;7.65;0.60;;;;;;;12.02;42.52;99061.03;4437349;32;20072;-69
2022/01/04 06:22:58;;;;;;;3.28;0.50;;;;;;;11.76;42.00;99054.47;4435824;32;20105;-69
2022/01/04 06:25:24;;;;;;;2.33;0.52;;;;;;;11.74;42.42;99054.16;4436001;32;20109;-69
2022/01/04 06:27:53;;;;;;;5.40;0.62;;;;;;;11.74;42.22;99048.53;4435974;32;20797;-69
2022/01/04 06:30:21;;;;;;;9.35;1.00;;;;;;;11.94;41.86;99057.81;4433125;32;20173;-69
2022/01/04 06:32:47;;;;;;;7.05;0.43;;;;;;;11.92;41.76;99053.94;4431905;32;20037;-69
2022/01/04 06:35:14;;;;;;;4.28;0.85;;;;;;;11.75;42.13;99053.66;4436466;32;20420;-69
2022/01/04 06:37:41;;;;;;;4.53;0.50;;;;;;;11.84;41.46;99052.78;4435065;32;20111;-69
2022/01/04 06:40:08;;;;;;;4.68;1.02;;;;;;;11.97;41.20;99050.44;4432579;32;20513;-69
2022/01/04 06:42:35;;;;;;;6.85;0.40;;;;;;;12.07;40.96;99063.94;4435031;32;20075;-69
2022/01/04 06:45:01;;;;;;;5.68;0.57;;;;;;;11.89;41.07;99072.63;4435065;32;20073;-69
2022/01/04 06:47:27;;;;;;;3.85;0.55;;;;;;;11.93;41.12;99073.19;4436863;32;20030;-69
2022/01/04 06:49:52;;;;;;;5.62;0.80;;;;;;;11.80;41.24;99083.22;4436142;32;20081;-69
2022/01/04 06:52:18;;;;;;;2.25;0.62;;;;;;;12.06;41.22;99084.94;4437434;32;20033;-69
2022/01/04 06:54:44;;;;;;;6.32;1.35;;;;;;;12.02;40.96;99095.63;4434822;32;20447;-69
2022/01/04 06:57:10;;;;;;;6.12;0.75;;;;;;;12.13;40.69;99095.03;4434337;32;20208;-69
2022/01/04 06:59:35;;;;;;;4.75;0.85;;;;;;;11.76;39.96;99083.41;4434696;32;20107;-69
2022/01/04 07:02:02;;;;;;;5.82;1.05;;;;;;;12.06;40.17;99093.37;4435253;32;20658;-69
2022/01/04 07:04:28;;;;;;;6.82;0.90;;;;;;;12.16;39.99;99094.06;4435662;32;20081;-68
2022/01/04 07:06:53;;;;;;;8.52;0.90;;;;;;;12.09;40.36;99098.06;4436835;32;20029;-68
2022/01/04 07:09:20;;;;;;;4.05;0.60;;;;;;;11.90;40.49;99099.53;4435067;32;20583;-68
2022/01/04 07:11:46;;;;;;;1.85;0.30;;;;;;;11.93;40.58;99103.41;4435218;32;20093;-68
2022/01/04 07:14:11;;;;;;;4.75;0.75;;;;;;;11.79;40.32;99115.47;4430647;32;20539;-68
2022/01/04 07:16:37;;;;;;;7.78;1.08;;;;;;;11.64;40.07;99121.12;4435823;32;20060;-68
2022/01/04 07:19:03;;;;;;;3.20;0.52;;;;;;;11.71;40.21;99114.31;4433331;32;20700;-68
2022/01/04 07:21:29;;;;;;;4.62;0.73;;;;;;;11.85;40.71;99125.56;4434081;32;20092;-69
2022/01/04 07:23:55;;;;;;;3.37;0.60;;;;;;;11.70;40.13;99129.66;4435695;32;20432;-68
2022/01/04 07:26:21;;;;;;;6.43;0.80;;;;;;;11.59;40.73;99129.41;4419577;32;20035;-69
2022/01/04 07:28:48;;;;;;;6.12;0.82;;;;;;;11.74;40.54;99131.03;4417559;32;20092;-69
2022/01/04 07:31:15;;;;;;;3.25;0.73;;;;;;;11.78;40.91;99131.59;4418870;32;20080;-69
2022/01/04 07:33:41;;;;;;;5.25;0.70;;;;;;;11.78;40.80;99119.53;4422414;32;20042;-69
2022/01/04 07:36:08;;;;;;;1.98;0.70;;;;;;;11.60;40.28;99136.62;4425108;32;20038;-68
2022/01/04 07:38:34;;;;;;;8.50;0.88;;;;;;;11.67;40.73;99136.28;4418701;32;20372;-69
2022/01/04 07:41:00;;;;;;;5.22;0.80;;;;;;;11.82;40.57;99139.87;4419995;32;20231;-69
2022/01/04 07:43:26;;;;;;;4.35;0.50;;;;;;;11.60;40.25;99136.62;4417980;32;20471;-68
2022/01/04 07:45:52;;;;;;;3.53;0.43;;;;;;;11.62;40.35;99145.38;4423241;32;20038;-69
2022/01/04 07:48:20;;;;;;;6.65;0.68;;;;;;;11.58;39.88;99144.78;4423376;32;20345;-68
2022/01/04 07:50:46;;;;;;;2.97;0.57;;;;;;;11.48;39.93;99146.87;4425779;32;20110;-68
2022/01/04 07:53:11;;;;;;;7.87;0.60;;;;;;;11.42;39.66;99159.31;4426934;32;20466;-68
2022/01/04 07:55:37;;;;;;;5.93;0.60;;;;;;;10.93;40.04;99157.03;4415949;32;20090;-68
2022/01/04 07:58:03;;;;;;;2.58;0.57;;;;;;;11.26;40.61;99151.31;4420238;32;20066;-68
2022/01/04 08:00:29;;;;;;;8.20;0.70;;;;;;;11.15;39.40;99159.53;4410958;32;20876;-68
2022/01/04 08:02:55;;;;;;;4.70;0.50;;;;;;;11.16;40.27;99156.22;4419975;32;20133;-68
2022/01/04 08:05:22;;;;;;;4.68;0.60;;;;;;;11.05;39.50;99158.81;4422890;32;20922;-68
2022/01/04 08:07:50;;;;;;;5.18;1.02;;;;;;;10.95;39.37;99157.31;4420560;32;20042;-68
2022/01/04 08:10:16;;;;;;;5.60;0.82;;;;;;;10.91;39.77;99161.56;4421738;32;20064;-68
2022/01/04 08:12:43;;;;;;;5.72;0.95;;;;;;;10.91;39.91;99159.53;4420909;32;20081;-68
2022/01/04 08:15:10;;;;;;;4.07;0.60;;;;;;;10.85;39.93;99157.84;4423672;32;20688;-68
2022/01/04 08:17:36;;;;;;;3.35;0.55;;;;;;;10.83;40.26;99154.75;4418176;32;20472;-68
2022/01/04 08:20:04;;;;;;;6.60;0.70;;;;;;;10.49;40.09;99163.69;4409507;32;20147;-68
2022/01/04 08:22:32;;;;;;;4.80;0.93;;;;;;;10.57;40.37;99164.88;4414014;32;20030;-68
2022/01/04 08:25:01;;;;;;;3.28;0.60;;;;;;;10.47;39.99;99161.34;4416615;32;20022;-68
2022/01/04 08:27:27;;;;;;;3.25;0.50;;;;;;;10.53;40.15;99165.09;4412837;32;20461;-68
2022/01/04 08:29:53;;;;;;;3.97;0.70;;;;;;;10.34;40.46;99166.41;4412920;32;20438;-68
2022/01/04 08:32:19;;;;;;;4.20;0.57;;;;;;;10.34;40.75;99174.06;4414206;32;20033;-68
2022/01/04 08:34:46;;;;;;;7.55;0.52;;;;;;;10.16;40.49;99185.37;4417930;32;20109;-68
2022/01/04 08:40:50;;;;;;;6.70;0.88;;;;;;;10.40;39.95;99191.84;4413318;32;20068;-68
2022/01/04 08:43:17;;;;;;;4.65;0.93;;;;;;;10.30;41.15;99199.53;4409969;32;20073;-68
2022/01/04 08:45:43;;;;;;;4.37;0.90;;;;;;;10.18;40.85;99191.31;4415796;32;20084;-68
2022/01/04 08:48:09;;;;;;;7.00;1.02;;;;;;;10.15;40.65;99197.88;4415964;32;20515;-68
2022/01/04 08:50:35;;;;;;;3.97;0.75;;;;;;;10.09;40.19;99192.09;4420474;32;20064;-68
2022/01/04 08:53:02;;;;;;;5.40;0.80;;;;;;;9.84;39.66;99198.06;4420841;32;20369;-67
2022/01/04 08:55:27;;;;;;;8.02;0.80;;;;;;;10.06;39.81;99199.44;4421145;32;20038;-68
2022/01/04 08:57:53;;;;;;;4.12;0.60;;;;;;;10.15;39.20;99200.69;4414218;32;20045;-68
2022/01/04 09:00:20;;;;;;;3.15;0.62;;;;;;;10.18;38.85;99197.69;4410353;32;20072;-68
2022/01/04 09:02:46;;;;;;;5.03;0.85;;;;;;;10.22;39.26;99200.34;4406495;32;20456;-68
2022/01/04 09:05:12;;;;;;;3.15;0.62;;;;;;;10.19;38.93;99207.72;4413619;32;20046;-68
2022/01/04 09:07:39;;;;;;;11.65;1.02;;;;;;;10.24;39.36;99209.84;4416904;32;20307;-68
2022/01/04 09:10:05;;;;;;;6.45;0.70;;;;;;;10.25;39.23;99213.47;4410917;32;20555;-68
2022/01/04 09:12:48;;;;;;;4.47;0.90;;;;;;;10.24;38.64;99212.66;4408685;32;20033;-68
2022/01/04 09:15:34;;;;;;;5.65;0.88;;;;;;;10.20;39.08;99216.91;4405033;32;20074;-67
2022/01/04 09:20:50;;;;;;;6.87;0.77;;;;;;;10.47;39.42;99219.62;4411774;32;20053;-67
2022/01/04 09:23:18;;;;;;;4.32;0.47;;;;;;;10.26;39.23;99213.00;4406838;32;20072;-67
2022/01/04 09:25:46;;;;;;;5.82;0.70;;;;;;;10.44;38.33;99221.38;4414507;32;20357;-68
2022/01/04 09:28:13;;;;;;;5.93;1.20;;;;;;;10.37;38.09;99224.50;4414753;32;20096;-67
2022/01/04 09:30:41;;;;;;;6.55;0.90;;;;;;;10.39;38.09;99224.00;4413885;32;20299;-67
2022/01/04 09:33:07;;;;;;;10.57;0.77;;;;;;;10.73;38.07;99240.44;4413862;32;20037;-68
2022/01/04 09:35:34;;;;;;;2.95;0.50;;;;;;;10.72;38.80;99233.28;4414464;32;20442;-68
2022/01/04 09:38:00;;;;;;;5.70;0.90;;;;;;;10.78;37.91;99231.37;4410984;32;20387;-67
2022/01/04 09:40:25;;;;;;;6.10;0.80;;;;;;;10.81;37.80;99230.41;4418058;32;20102;-67
2022/01/04 09:42:52;;;;;;;5.55;1.33;;;;;;;10.92;37.63;99227.88;4418391;32;20099;-67
2022/01/04 09:45:18;;;;;;;3.25;0.93;;;;;;;11.45;37.66;99223.91;4412698;32;20081;-68
2022/01/04 09:47:44;;;;;;;6.12;1.10;;;;;;;11.67;36.81;99230.03;4405234;32;20085;-67
2022/01/04 09:50:10;;;;;;;8.98;0.90;;;;;;;12.12;37.01;99226.00;4412263;32;20154;-67
2022/01/04 09:52:46;;;;;;;9.98;1.27;;;;;;;12.47;36.87;99223.28;4406578;32;21452;-67
2022/01/04 09:55:14;;;;;;;3.92;1.42;;;;;;;12.56;34.80;99229.59;4415285;32;20145;-68
2022/01/04 09:57:43;;;;;;;9.10;2.05;;;;;;;12.79;34.74;99242.03;4417428;32;20034;-67
2022/01/04 10:00:14;;;;;;;8.80;1.45;;;;;;;13.18;35.01;99238.53;4411004;32;20030;-67
2022/01/04 10:02:41;;;;;;;7.93;1.25;;;;;;;13.61;34.84;99248.09;4412583;32;20091;-67
2022/01/04 10:05:25;;;;;;;4.60;1.05;;;;;;;13.66;32.90;99245.31;4413720;32;20077;-68
2022/01/04 10:08:00;;;;;;;4.43;1.23;;;;;;;14.17;32.86;99253.09;4413035;32;20505;-67
2022/01/04 10:10:26;;;;;;;6.80;1.77;;;;;;;14.04;31.85;99258.34;4411977;32;20046;-66
2022/01/04 10:12:55;;;;;;;6.57;1.00;;;;;;;14.44;32.13;99261.13;4412007;32;20090;-66
2022/01/04 10:15:42;;;;;;;5.22;1.40;;;;;;;14.60;32.08;99259.72;4408446;32;20356;-66
2022/01/04 10:21:12;;;;;;;4.87;1.08;;;;;;;15.99;30.39;99289.19;3976971;32;15022074;-67
2022/01/04 10:23:55;;;;;;;5.47;1.30;;;;;;;15.99;30.39;99289.19;4433035;32;20071;-68
2022/01/04 10:26:32;;;;;;;4.65;1.00;;;;;;;15.35;29.96;99274.97;4425593;32;20037;-68
2022/01/04 10:28:58;;;;;;;8.77;1.40;;;;;;;15.54;30.36;99284.63;4430719;32;20174;-70
2022/01/04 10:31:24;;;;;;;5.53;1.30;;;;;;;15.40;30.20;99281.97;4427494;32;20100;-69
2022/01/04 10:33:53;;;;;;;7.87;1.95;;;;;;;15.64;30.82;99285.97;4431187;32;20041;-68
2022/01/04 10:36:21;;;;;;;6.97;1.30;;;;;;;15.91;29.41;99281.69;4432496;32;20524;-67
2022/01/04 10:38:48;;;;;;;5.57;1.20;;;;;;;15.18;29.26;99278.94;4413280;32;20064;-67
2022/01/04 10:43:56;;;;;;;7.87;1.17;;;;;;;15.76;30.19;99287.56;3974862;32;15034880;-69
2022/01/04 10:46:32;;;;;;;9.00;1.30;;;;;;;15.60;30.17;99285.44;4421554;32;20060;-68
2022/01/04 10:48:58;;;;;;;5.40;1.02;;;;;;;15.79;29.62;99288.59;4421596;32;20095;-68
2022/01/04 10:51:26;;;;;;;7.70;1.20;;;;;;;15.61;29.85;99289.81;4416611;32;20141;-68
2022/01/04 10:53:55;;;;;;;6.75;1.50;;;;;;;15.71;29.14;99279.06;4416163;32;20045;-68
2022/01/04 10:56:27;;;;;;;5.25;1.25;;;;;;;15.91;29.44;99282.47;4418551;32;20049;-68
2022/01/04 10:58:56;;;;;;;8.57;1.30;;;;;;;15.37;29.20;99283.75;4418634;32;20285;-67
2022/01/04 11:01:25;;;;;;;7.53;1.48;;;;;;;14.83;29.93;99284.09;4419043;32;20088;-68
2022/01/04 11:03:54;;;;;;;6.53;1.40;;;;;;;14.50;30.86;99292.28;4418838;32;20530;-68
2022/01/04 11:09:08;;;;;;;6.62;1.30;;;;;;;14.19;31.44;99289.38;3980926;32;15069406;-68
2022/01/04 11:11:34;;;;;;;9.50;2.12;;;;;;;14.19;31.44;99289.38;4438063;32;20419;-68
2022/01/04 11:14:01;;;;;;;9.95;2.03;;;;;;;14.01;31.26;99285.59;4436578;32;20455;-69
2022/01/04 11:16:29;;;;;;;4.93;1.35;;;;;;;13.82;32.04;99281.53;4436966;32;20103;-68
2022/01/04 11:18:57;;;;;;;5.95;1.20;;;;;;;13.01;32.44;99281.91;4434964;32;20494;-69
2022/01/04 11:24:02;;;;;;;6.43;0.93;;;;;;;13.29;33.04;99297.25;3948149;32;15722520;-67
2022/01/04 11:26:29;;;;;;;6.53;1.20;;;;;;;13.29;33.04;99297.25;4418891;32;20079;-68
2022/01/04 11:28:55;;;;;;;12.37;1.95;;;;;;;12.94;32.58;99285.88;4423516;32;20041;-68
2022/01/04 11:34:24;;;;;;;9.13;1.73;;;;;;;15.11;30.24;99303.12;3957503;32;15024838;-68
2022/01/04 11:36:51;;;;;;;10.38;1.65;;;;;;;15.11;30.28;99310.59;4405019;32;20111;-67
2022/01/04 11:39:39;;;;;;;9.98;1.90;;;;;;;14.81;30.38;99300.81;4408594;32;20076;-68
2022/01/04 11:42:08;;;;;;;5.37;1.10;;;;;;;15.62;29.50;99308.37;4408310;32;20438;-67
2022/01/04 11:44:44;;;;;;;6.50;1.30;;;;;;;15.88;28.42;99326.06;4408432;32;20282;-68
2022/01/04 11:47:15;;;;;;;9.18;1.10;;;;;;;15.03;29.21;99307.44;4407147;32;20478;-68
2022/01/04 11:58:00;;;;;;;6.35;1.60;;;;;;;16.71;27.73;99297.91;3986049;32;15022438;-68
2022/01/04 12:00:30;;;;;;;10.13;1.42;;;;;;;16.71;27.73;99297.91;4438175;32;20958;-68
2022/01/04 12:05:56;;;;;;;9.05;1.65;;;;;;;16.48;27.09;99295.56;3953985;32;15023348;-69
2022/01/04 12:08:25;;;;;;;6.10;1.23;;;;;;;16.08;27.86;99296.75;4417506;32;20130;-69
2022/01/04 12:10:53;;;;;;;4.28;1.30;;;;;;;16.83;27.25;99296.62;4416842;32;20488;-69
2022/01/04 12:13:21;;;;;;;8.95;0.90;;;;;;;16.91;26.20;99306.19;4412207;32;20073;-69